createdAt,value
2023-04-15T00:00:02.222Z,7.00
2023-04-15T00:02:40.921Z,7.95
2023-04-15T00:05:11.091Z,10.35
2023-04-15T00:07:40.482Z,9.10
2023-04-15T00:10:09.735Z,8.77
2023-04-15T00:12:37.575Z,10.45
2023-04-15T00:15:06.893Z,8.57
2023-04-15T00:17:34.713Z,9.43
2023-04-15T00:20:03.585Z,12.00
2023-04-15T00:22:32.880Z,13.93
2023-04-15T00:25:00.645Z,12.82
2023-04-15T00:27:28.752Z,10.18
2023-04-15T00:29:57.258Z,10.65
2023-04-15T00:32:25.056Z,9.30
2023-04-15T00:34:53.124Z,7.03
2023-04-15T00:37:21.197Z,7.72
2023-04-15T00:39:50.807Z,7.45
2023-04-15T00:42:20.102Z,7.78
2023-04-15T00:44:47.952Z,6.38
2023-04-15T00:47:17.337Z,6.07
2023-04-15T00:49:45.697Z,4.30
2023-04-15T00:52:13.704Z,5.15
2023-04-15T00:54:41.984Z,6.65
2023-04-15T00:57:11.146Z,7.75
2023-04-15T00:59:39.089Z,6.45
2023-04-15T01:02:07.327Z,9.23
2023-04-15T01:04:35.854Z,6.20
2023-04-15T01:07:03.853Z,8.68
2023-04-15T01:09:31.793Z,7.85
2023-04-15T01:12:00.185Z,9.48
2023-04-15T01:14:30.197Z,8.02
2023-04-15T01:16:58.345Z,5.45
2023-04-15T01:19:27.416Z,7.38
2023-04-15T01:21:55.133Z,6.75
2023-04-15T01:24:24.039Z,6.20
2023-04-15T01:26:53.148Z,9.48
2023-04-15T01:29:20.962Z,5.28
2023-04-15T01:31:53.121Z,5.93
2023-04-15T01:34:21.083Z,4.78
2023-04-15T01:36:49.825Z,9.23
2023-04-15T01:39:17.752Z,5.63
2023-04-15T01:41:45.420Z,6.93
2023-04-15T01:44:14.446Z,6.18
2023-04-15T01:46:42.236Z,4.38
2023-04-15T01:49:10.182Z,5.53
2023-04-15T01:51:37.872Z,7.32
2023-04-15T01:54:07.144Z,6.55
2023-04-15T01:56:35.027Z,5.15
2023-04-15T01:59:05.049Z,6.32
2023-04-15T02:01:34.199Z,5.32
2023-04-15T02:04:02.643Z,6.43
2023-04-15T02:06:32.409Z,7.93
2023-04-15T02:09:00.943Z,6.35
2023-04-15T02:11:29.527Z,5.03
2023-04-15T02:13:57.253Z,6.03
2023-04-15T02:16:26.776Z,6.80
2023-04-15T02:18:55.906Z,4.78
2023-04-15T02:21:23.739Z,4.00
2023-04-15T02:23:54.016Z,6.32
2023-04-15T02:26:22.351Z,9.02
2023-04-15T02:28:51.353Z,8.00
2023-04-15T02:31:19.463Z,5.85
2023-04-15T02:33:47.736Z,7.93
2023-04-15T02:36:16.929Z,6.93
2023-04-15T02:38:45.207Z,9.18
2023-04-15T02:41:15.669Z,10.07
2023-04-15T02:43:46.253Z,7.88
2023-04-15T02:46:15.616Z,7.80
2023-04-15T02:48:43.683Z,8.20
2023-04-15T02:51:21.255Z,6.57
2023-04-15T02:53:49.728Z,9.02
2023-04-15T02:56:19.540Z,6.70
2023-04-15T02:58:50.490Z,6.95
2023-04-15T03:01:18.606Z,9.15
2023-04-15T03:03:46.967Z,6.65
2023-04-15T03:06:14.870Z,5.38
2023-04-15T03:08:44.254Z,7.47
2023-04-15T03:11:14.394Z,8.25
2023-04-15T03:13:43.221Z,7.28
2023-04-15T03:16:21.782Z,7.28
2023-04-15T03:18:49.591Z,8.85
2023-04-15T03:21:18.133Z,7.90
2023-04-15T03:23:48.677Z,6.90
2023-04-15T03:26:25.557Z,8.18
2023-04-15T03:28:53.875Z,9.18
2023-04-15T03:31:21.627Z,8.57
2023-04-15T03:33:49.499Z,7.18
2023-04-15T03:36:17.848Z,6.57
2023-04-15T03:38:46.010Z,6.78
2023-04-15T03:41:15.704Z,9.50
2023-04-15T03:43:43.433Z,9.00
2023-04-15T03:46:11.897Z,7.55
2023-04-15T03:48:39.582Z,7.13
2023-04-15T03:51:07.312Z,8.38
2023-04-15T03:53:35.646Z,5.97
2023-04-15T03:56:03.575Z,6.22
2023-04-15T03:58:32.879Z,8.38
2023-04-15T04:01:00.666Z,9.25
2023-04-15T04:03:28.706Z,9.38
2023-04-15T04:05:56.839Z,10.88
2023-04-15T04:08:24.535Z,5.85
2023-04-15T04:10:52.378Z,7.88
2023-04-15T04:13:20.092Z,9.95
2023-04-15T04:15:49.585Z,5.95
2023-04-15T04:18:17.372Z,6.80
2023-04-15T04:20:45.350Z,7.75
2023-04-15T04:23:14.280Z,8.35
2023-04-15T04:25:42.393Z,7.93
2023-04-15T04:28:10.093Z,11.63
2023-04-15T04:30:40.794Z,10.63
2023-04-15T04:33:09.903Z,9.32
2023-04-15T04:35:37.832Z,8.35
2023-04-15T04:38:07.444Z,8.10
2023-04-15T04:40:35.203Z,7.28
2023-04-15T04:43:03.175Z,11.05
2023-04-15T04:45:30.935Z,8.75
2023-04-15T04:47:58.832Z,8.95
2023-04-15T04:50:27.956Z,7.03
2023-04-15T04:52:55.621Z,8.70
2023-04-15T04:55:23.487Z,9.88
2023-04-15T04:57:51.453Z,8.55
2023-04-15T05:00:19.535Z,9.82
2023-04-15T05:02:47.793Z,10.00
2023-04-15T05:05:16.169Z,10.52
2023-04-15T05:07:45.358Z,8.10
2023-04-15T05:10:14.874Z,10.00
2023-04-15T05:12:42.760Z,8.80
2023-04-15T05:15:11.439Z,11.02
2023-04-15T05:17:39.456Z,6.63
2023-04-15T05:20:09.739Z,7.88
2023-04-15T05:22:38.179Z,7.97
2023-04-15T05:25:10.300Z,10.32
2023-04-15T05:27:38.543Z,9.00
2023-04-15T05:30:07.618Z,7.20
2023-04-15T05:32:35.694Z,8.25
2023-04-15T05:35:03.556Z,10.82
2023-04-15T05:37:31.320Z,9.02
2023-04-15T05:39:59.116Z,9.48
2023-04-15T05:42:28.289Z,7.45
2023-04-15T05:44:56.165Z,8.65
2023-04-15T05:47:24.249Z,10.57
2023-04-15T05:49:52.047Z,8.35
2023-04-15T05:52:20.449Z,7.47
2023-04-15T05:54:48.100Z,8.20
2023-04-15T05:57:15.918Z,10.70
2023-04-15T05:59:45.029Z,6.20
2023-04-15T06:02:13.657Z,10.63
2023-04-15T06:04:41.532Z,11.05
2023-04-15T06:07:09.459Z,11.43
2023-04-15T06:09:37.270Z,7.60
2023-04-15T06:12:06.576Z,8.52
2023-04-15T06:14:34.245Z,10.35
2023-04-15T06:17:03.406Z,7.60
2023-04-15T06:19:31.905Z,8.43
2023-04-15T06:22:00.718Z,6.63
2023-04-15T06:24:28.496Z,8.98
2023-04-15T06:26:57.856Z,9.05
2023-04-15T06:29:25.903Z,8.98
2023-04-15T06:31:53.846Z,9.98
2023-04-15T06:34:23.626Z,10.32
2023-04-15T06:36:51.275Z,11.35
2023-04-15T06:39:19.421Z,9.93
2023-04-15T06:41:47.591Z,10.50
2023-04-15T06:44:15.854Z,9.88
2023-04-15T06:46:44.210Z,10.93
2023-04-15T06:49:12.352Z,8.25
2023-04-15T06:51:41.607Z,9.25
2023-04-15T06:54:09.452Z,9.55
2023-04-15T06:56:37.326Z,10.68
2023-04-15T06:59:05.515Z,9.95
2023-04-15T07:01:33.423Z,10.48
2023-04-15T07:04:01.555Z,8.70
2023-04-15T07:06:35.618Z,8.88
2023-04-15T07:09:06.065Z,8.63
2023-04-15T07:11:34.098Z,11.43
2023-04-15T07:14:02.204Z,8.20
2023-04-15T07:16:31.047Z,8.73
2023-04-15T07:18:59.859Z,8.55
2023-04-15T07:21:28.139Z,8.23
2023-04-15T07:23:55.900Z,7.30
2023-04-15T07:26:25.352Z,8.18
2023-04-15T07:28:53.320Z,9.02
2023-04-15T07:31:21.334Z,9.02
2023-04-15T07:33:49.702Z,7.78
2023-04-15T07:36:17.718Z,10.15
2023-04-15T07:38:45.536Z,6.90
2023-04-15T07:41:13.475Z,7.28
2023-04-15T07:43:43.289Z,9.63
2023-04-15T07:46:11.102Z,7.60
2023-04-15T07:48:38.942Z,10.98
2023-04-15T07:51:07.499Z,8.85
2023-04-15T07:53:35.730Z,6.75
2023-04-15T07:56:03.635Z,8.77
2023-04-15T07:58:31.503Z,10.63
2023-04-15T08:01:00.870Z,9.50
2023-04-15T08:03:29.478Z,11.18
2023-04-15T08:05:57.497Z,10.55
2023-04-15T08:08:25.347Z,10.80
2023-04-15T08:10:53.277Z,9.25
2023-04-15T08:13:22.293Z,9.20
2023-04-15T08:16:23.454Z,9.18
2023-04-15T08:18:52.913Z,8.68
2023-04-15T08:21:21.719Z,7.97
2023-04-15T08:23:51.844Z,9.98
2023-04-15T08:26:23.985Z,7.78
2023-04-15T08:28:51.767Z,8.90
2023-04-15T08:31:22.794Z,8.05
2023-04-15T08:33:53.539Z,7.93
2023-04-15T08:36:23.294Z,8.32
2023-04-15T08:38:51.159Z,9.77
2023-04-15T08:41:24.623Z,9.85
2023-04-15T08:43:59.143Z,9.07
2023-04-15T08:46:29.146Z,11.77
2023-04-15T08:48:59.181Z,8.75
2023-04-15T08:51:27.826Z,8.65
2023-04-15T08:53:56.047Z,10.85
2023-04-15T08:56:27.126Z,9.35
2023-04-15T08:58:55.558Z,12.13
2023-04-15T09:01:24.472Z,9.52
2023-04-15T09:03:54.517Z,10.27
2023-04-15T09:06:23.479Z,9.45
2023-04-15T09:08:53.234Z,11.05
2023-04-15T09:11:23.070Z,9.05
2023-04-15T09:13:51.473Z,9.90
2023-04-15T09:16:19.587Z,9.95
2023-04-15T09:18:47.397Z,7.72
2023-04-15T09:21:19.223Z,8.88
2023-04-15T09:23:57.682Z,9.05
2023-04-15T09:26:34.207Z,8.95
2023-04-15T09:29:09.467Z,8.10
2023-04-15T09:31:38.421Z,9.68
2023-04-15T09:34:06.832Z,8.18
2023-04-15T09:36:53.944Z,8.13
2023-04-15T09:39:22.289Z,7.30
2023-04-15T09:42:07.760Z,9.95
2023-04-15T09:44:36.120Z,8.20
2023-04-15T09:47:04.115Z,8.95
2023-04-15T09:49:31.944Z,6.90
2023-04-15T09:52:06.023Z,8.27
2023-04-15T09:54:39.369Z,8.25
2023-04-15T09:57:08.367Z,8.25
2023-04-15T09:59:37.308Z,8.85
2023-04-15T10:02:07.414Z,11.32
2023-04-15T10:04:38.233Z,7.95
2023-04-15T10:07:09.547Z,11.68
2023-04-15T10:09:39.544Z,8.23
2023-04-15T10:12:07.645Z,7.70
2023-04-15T10:14:38.843Z,9.32
2023-04-15T10:17:07.052Z,7.70
2023-04-15T10:19:38.622Z,8.90
2023-04-15T10:22:08.204Z,7.47
2023-04-15T10:24:36.575Z,6.70
2023-04-15T10:27:05.361Z,7.78
2023-04-15T10:29:33.363Z,6.93
2023-04-15T10:32:02.621Z,6.38
2023-04-15T10:34:31.155Z,6.30
2023-04-15T10:37:03.443Z,9.25
2023-04-15T10:39:45.468Z,7.35
2023-04-15T10:42:15.171Z,5.65
2023-04-15T10:44:44.659Z,8.25
2023-04-15T10:47:14.454Z,6.72
2023-04-15T10:49:47.597Z,5.95
2023-04-15T10:52:17.631Z,12.52
2023-04-15T10:54:47.481Z,7.72
2023-04-15T10:57:17.973Z,8.65
2023-04-15T11:00:11.410Z,6.68
2023-04-15T11:02:50.813Z,6.50
2023-04-15T11:05:19.832Z,5.05
2023-04-15T11:07:53.763Z,6.97
2023-04-15T11:10:54.107Z,6.07
2023-04-15T11:13:25.148Z,5.60
2023-04-15T11:15:58.133Z,5.95
2023-04-15T11:18:28.448Z,5.10
2023-04-15T11:20:59.195Z,5.32
2023-04-15T11:23:33.303Z,6.60
2023-04-15T11:26:05.665Z,5.20
2023-04-15T11:28:34.299Z,5.28
2023-04-15T11:31:10.575Z,5.57
2023-04-15T11:33:38.914Z,4.50
2023-04-15T11:36:07.422Z,4.40
2023-04-15T11:38:37.933Z,5.47
2023-04-15T11:41:07.213Z,6.80
2023-04-15T11:43:36.410Z,4.22
2023-04-15T11:46:05.070Z,3.20
2023-04-15T11:48:36.322Z,3.80
2023-04-15T11:51:05.340Z,3.92
2023-04-15T11:53:41.446Z,3.20
2023-04-15T11:56:12.057Z,2.60
2023-04-15T11:58:40.832Z,3.53
2023-04-15T12:01:08.871Z,2.72
2023-04-15T12:03:41.705Z,2.25
2023-04-15T12:06:16.777Z,2.03
2023-04-15T12:09:03.576Z,2.22
2023-04-15T12:11:35.238Z,2.83
2023-04-15T12:14:10.039Z,2.28
2023-04-15T12:16:48.805Z,1.30
2023-04-15T12:19:20.060Z,3.20
2023-04-15T12:21:49.735Z,2.28
2023-04-15T12:24:23.020Z,1.63
2023-04-15T12:26:54.229Z,3.05
2023-04-15T12:29:26.661Z,1.80
2023-04-15T12:31:56.046Z,5.20
2023-04-15T12:34:31.415Z,1.30
2023-04-15T12:37:01.621Z,2.45
2023-04-15T12:39:33.122Z,2.15
2023-04-15T12:42:02.945Z,1.38
2023-04-15T12:44:31.697Z,1.70
2023-04-15T12:47:00.975Z,2.45
2023-04-15T12:49:29.690Z,1.40
2023-04-15T12:51:59.778Z,1.33
2023-04-15T12:54:28.695Z,1.15
2023-04-15T12:56:57.882Z,0.68
2023-04-15T12:59:27.435Z,1.67
2023-04-15T13:01:55.740Z,2.38
2023-04-15T13:04:24.529Z,1.05
2023-04-15T13:07:17.750Z,1.00
2023-04-15T13:09:46.767Z,1.23
2023-04-15T13:12:16.362Z,0.90
2023-04-15T13:14:45.776Z,2.20
2023-04-15T13:17:14.217Z,1.45
2023-04-15T13:19:42.917Z,0.90
2023-04-15T13:22:11.869Z,1.17
2023-04-15T13:24:40.926Z,1.85
2023-04-15T13:27:08.977Z,1.00
2023-04-15T13:29:36.828Z,1.48
2023-04-15T13:32:06.650Z,2.80
2023-04-15T13:34:34.630Z,2.90
2023-04-15T13:37:07.913Z,4.55
2023-04-15T13:39:36.064Z,3.42
2023-04-15T13:42:04.586Z,1.40
2023-04-15T13:44:32.806Z,3.13
2023-04-15T13:47:00.989Z,1.40
2023-04-15T13:49:31.130Z,2.00
2023-04-15T13:51:59.336Z,2.92
2023-04-15T13:54:37.654Z,1.30
2023-04-15T13:57:06.619Z,1.15
2023-04-15T13:59:35.584Z,1.83
2023-04-15T14:02:04.122Z,2.65
2023-04-15T14:04:34.133Z,1.98
2023-04-15T14:07:03.414Z,2.28
2023-04-15T14:12:02.540Z,3.08
2023-04-15T14:14:30.994Z,2.03
2023-04-15T14:17:00.157Z,2.05
2023-04-15T14:19:28.569Z,2.45
2023-04-15T14:21:59.548Z,1.95
2023-04-15T14:24:28.523Z,1.50
2023-04-15T14:26:57.455Z,2.58
2023-04-15T14:29:26.186Z,2.95
2023-04-15T14:32:07.439Z,3.05
2023-04-15T14:34:40.854Z,2.47
2023-04-15T14:37:10.065Z,2.10
2023-04-15T14:39:38.481Z,2.90
2023-04-15T14:42:06.615Z,2.13
2023-04-15T14:44:34.597Z,2.53
2023-04-15T14:47:02.803Z,2.83
2023-04-15T14:49:31.119Z,3.20
2023-04-15T14:52:00.148Z,2.30
2023-04-15T14:54:29.654Z,2.70
2023-04-15T14:56:58.146Z,2.50
2023-04-15T14:59:26.286Z,2.65
2023-04-15T15:01:55.028Z,2.13
2023-04-15T15:04:23.267Z,2.42
2023-04-15T15:06:51.796Z,2.38
2023-04-15T15:09:22.159Z,2.50
2023-04-15T15:11:51.997Z,3.88
2023-04-15T15:14:22.146Z,4.38
2023-04-15T15:16:51.175Z,3.80
2023-04-15T15:19:19.750Z,2.20
2023-04-15T15:21:47.818Z,2.45
2023-04-15T15:24:16.456Z,2.08
2023-04-15T15:26:44.898Z,2.15
2023-04-15T15:29:14.300Z,2.10
2023-04-15T15:31:42.398Z,2.45
2023-04-15T15:34:10.583Z,2.50
2023-04-15T15:36:38.798Z,2.05
2023-04-15T15:39:06.977Z,2.00
2023-04-15T15:41:35.451Z,1.90
2023-04-15T15:44:04.255Z,1.40
2023-04-15T15:46:33.750Z,5.68
2023-04-15T15:49:04.520Z,1.80
2023-04-15T15:51:33.135Z,1.65
2023-04-15T15:54:01.383Z,2.58
2023-04-15T15:56:29.646Z,2.20
2023-04-15T15:59:00.562Z,3.35
2023-04-15T16:01:28.629Z,2.60
2023-04-15T16:03:58.353Z,2.45
2023-04-15T16:06:27.190Z,3.20
2023-04-15T16:08:55.232Z,4.63
2023-04-15T16:11:24.341Z,4.13
2023-04-15T16:13:52.554Z,3.35
2023-04-15T16:16:20.798Z,3.17
2023-04-15T16:18:49.190Z,2.60
2023-04-15T16:21:20.221Z,2.85
2023-04-15T16:23:48.004Z,3.97
2023-04-15T16:26:16.508Z,3.78
2023-04-15T16:28:44.408Z,3.05
2023-04-15T16:31:12.656Z,5.82
2023-04-15T16:33:40.485Z,3.58
2023-04-15T16:36:08.664Z,3.80
2023-04-15T16:38:38.119Z,4.22
2023-04-15T16:41:06.052Z,3.88
2023-04-15T16:43:33.857Z,4.55
2023-04-15T16:46:02.109Z,5.47
2023-04-15T16:48:29.844Z,4.50
2023-04-15T16:50:58.592Z,3.95
2023-04-15T16:53:26.368Z,3.25
2023-04-15T16:55:55.456Z,4.00
2023-04-15T16:58:23.710Z,4.18
2023-04-15T17:00:51.882Z,4.47
2023-04-15T17:03:19.834Z,3.58
2023-04-15T17:05:47.622Z,3.67
2023-04-15T17:08:15.372Z,3.70
2023-04-15T17:10:43.117Z,3.13
2023-04-15T17:13:12.970Z,4.78
2023-04-15T17:15:40.897Z,3.47
2023-04-15T17:18:10.685Z,4.07
2023-04-15T17:20:39.709Z,3.42
2023-04-15T17:23:07.661Z,4.57
2023-04-15T17:25:35.768Z,4.72
2023-04-15T17:28:04.391Z,3.47
2023-04-15T17:30:34.105Z,3.85
2023-04-15T17:33:02.282Z,3.67
2023-04-15T17:35:30.444Z,3.95
2023-04-15T17:37:58.778Z,3.55
2023-04-15T17:40:28.075Z,3.60
2023-04-15T17:42:56.021Z,3.42
2023-04-15T17:45:24.354Z,3.35
2023-04-15T17:47:54.466Z,3.10
2023-04-15T17:50:24.147Z,3.20
2023-04-15T17:52:52.514Z,3.05
2023-04-15T17:55:22.202Z,3.33
2023-04-15T17:57:50.329Z,4.47
2023-04-15T18:00:19.062Z,3.05
2023-04-15T18:02:58.948Z,3.70
2023-04-15T18:05:29.321Z,3.60
2023-04-15T18:07:58.031Z,3.55
2023-04-15T18:11:03.623Z,4.20
2023-04-15T18:13:32.320Z,4.13
2023-04-15T18:16:00.897Z,4.20
2023-04-15T18:18:29.715Z,4.57
2023-04-15T18:20:59.028Z,4.35
2023-04-15T18:23:26.890Z,4.95
2023-04-15T18:25:55.516Z,4.53
2023-04-15T18:28:23.607Z,4.75
2023-04-15T18:30:52.159Z,4.60
2023-04-15T18:33:20.962Z,4.97
2023-04-15T18:35:50.133Z,4.97
2023-04-15T18:38:19.540Z,5.20
2023-04-15T18:40:47.986Z,5.93
2023-04-15T18:43:18.293Z,6.00
2023-04-15T18:45:48.565Z,6.32
2023-04-15T18:48:18.506Z,6.05
2023-04-15T18:50:47.932Z,6.00
2023-04-15T18:53:17.587Z,6.28
2023-04-15T18:55:47.351Z,6.38
2023-04-15T18:58:15.396Z,6.20
2023-04-15T19:00:43.955Z,6.97
2023-04-15T19:03:12.276Z,8.70
2023-04-15T19:05:40.941Z,6.93
2023-04-15T19:08:08.855Z,6.97
2023-04-15T19:10:36.689Z,8.00
2023-04-15T19:13:06.163Z,8.00
2023-04-15T19:15:34.076Z,8.75
2023-04-15T19:18:02.233Z,7.88
2023-04-15T19:20:30.619Z,9.65
2023-04-15T19:22:58.446Z,9.18
2023-04-15T19:25:29.130Z,9.45
2023-04-15T19:27:58.863Z,10.10
2023-04-15T19:30:29.074Z,9.80
2023-04-15T19:32:57.446Z,8.93
2023-04-15T19:35:25.445Z,9.13
2023-04-15T19:37:53.331Z,10.45
2023-04-15T19:40:21.356Z,10.23
2023-04-15T19:42:49.979Z,11.85
2023-04-15T19:45:17.892Z,11.32
2023-04-15T19:47:47.302Z,9.57
2023-04-15T19:50:16.998Z,8.82
2023-04-15T19:52:44.988Z,8.82
2023-04-15T19:55:12.862Z,9.55
2023-04-15T19:57:41.000Z,8.38
2023-04-15T20:00:10.511Z,8.55
2023-04-15T20:02:38.661Z,8.00
2023-04-15T20:05:09.994Z,8.38
2023-04-15T20:07:39.863Z,8.60
2023-04-15T20:10:12.466Z,8.90
2023-04-15T20:12:50.839Z,8.27
2023-04-15T20:15:22.879Z,8.20
2023-04-15T20:17:51.003Z,8.50
2023-04-15T20:20:20.428Z,8.20
2023-04-15T20:22:48.536Z,7.82
2023-04-15T20:25:16.868Z,7.88
2023-04-15T20:27:45.740Z,8.15
2023-04-15T20:30:14.108Z,7.80
2023-04-15T20:32:42.431Z,7.63
2023-04-15T20:35:10.581Z,7.38
2023-04-15T20:37:40.498Z,6.88
2023-04-15T20:40:09.576Z,7.53
2023-04-15T20:42:37.834Z,7.15
2023-04-15T20:45:06.992Z,6.55
2023-04-15T20:47:34.899Z,7.05
2023-04-15T20:50:02.944Z,6.75
2023-04-15T20:52:30.963Z,7.15
2023-04-15T20:55:02.989Z,6.47
2023-04-15T20:57:31.328Z,6.72
2023-04-15T20:59:59.318Z,8.63
2023-04-15T21:02:27.934Z,10.18
2023-04-15T21:04:56.267Z,6.38
2023-04-15T21:07:24.413Z,7.35
2023-04-15T21:09:52.784Z,8.32
2023-04-15T21:12:22.341Z,6.72
2023-04-15T21:14:51.442Z,7.50
2023-04-15T21:17:19.468Z,7.00
2023-04-15T21:19:47.862Z,7.22
2023-04-15T21:22:16.334Z,6.60
2023-04-15T21:24:44.224Z,6.90
2023-04-15T21:27:12.457Z,7.38
2023-04-15T21:29:41.995Z,6.72
2023-04-15T21:32:10.617Z,5.82
2023-04-15T21:34:38.962Z,6.65
2023-04-15T21:37:06.869Z,6.72
2023-04-15T21:39:35.412Z,7.53
2023-04-15T21:42:03.771Z,7.18
2023-04-15T21:44:32.214Z,7.57
2023-04-15T21:47:02.488Z,10.98
2023-04-15T21:49:31.395Z,7.93
2023-04-15T21:52:01.428Z,7.63
2023-04-15T21:54:31.337Z,7.75
2023-04-15T21:56:59.578Z,8.02
2023-04-15T21:59:27.581Z,9.85
2023-04-15T22:01:56.605Z,8.40
2023-04-15T22:04:26.149Z,9.40
2023-04-15T22:06:55.760Z,7.32
2023-04-15T22:09:23.801Z,7.70
2023-04-15T22:11:51.692Z,8.15
2023-04-15T22:14:19.988Z,8.57
2023-04-15T22:16:48.296Z,10.70
2023-04-15T22:19:15.996Z,8.32
2023-04-15T22:21:45.106Z,8.35
2023-04-15T22:24:34.472Z,8.25
2023-04-15T22:27:02.059Z,8.30
2023-04-15T22:29:30.711Z,7.93
2023-04-15T22:31:58.969Z,8.48
2023-04-15T22:34:26.890Z,7.60
2023-04-15T22:36:55.937Z,7.70
2023-04-15T22:39:23.707Z,8.18
2023-04-15T22:41:51.466Z,8.25
2023-04-15T22:44:19.601Z,8.30
2023-04-15T22:46:47.292Z,9.32
2023-04-15T22:49:15.515Z,8.73
2023-04-15T22:51:44.943Z,8.25
2023-04-15T22:54:14.053Z,8.57
2023-04-15T22:56:42.502Z,9.63
2023-04-15T22:59:10.428Z,9.00
2023-04-15T23:01:39.372Z,9.77
2023-04-15T23:04:24.974Z,11.27
2023-04-15T23:06:55.701Z,10.13
2023-04-15T23:09:25.203Z,13.80
2023-04-15T23:11:53.138Z,11.48
2023-04-15T23:14:26.052Z,12.32
2023-04-15T23:16:54.207Z,11.50
2023-04-15T23:19:21.953Z,12.98
2023-04-15T23:21:50.252Z,12.60
2023-04-15T23:24:18.326Z,13.85
2023-04-15T23:26:47.452Z,13.93
2023-04-15T23:29:15.214Z,14.15
2023-04-15T23:31:43.301Z,14.07
2023-04-15T23:34:11.389Z,15.65
2023-04-15T23:36:39.584Z,15.43
2023-04-15T23:39:07.728Z,17.42
2023-04-15T23:41:36.610Z,16.33
2023-04-15T23:44:06.451Z,17.98
2023-04-15T23:46:34.289Z,17.88
2023-04-15T23:49:02.150Z,17.00
2023-04-15T23:51:30.122Z,16.63
2023-04-15T23:53:57.879Z,17.02
2023-04-15T23:56:25.795Z,16.92
2023-04-15T23:58:53.467Z,15.68
